Aérodrome :
LOGIN :

S'inscrire | Disclaimer

   EN    FR    IT 

 










Légende :    VFR   VFR Marginal   IFR   IFR Intensif   IFR Très Intensif
Visi : 
Plafond : 
>= 8 km
>= 3000ft
5 à 8 km
1000 à 3000 ft
1500m à 5 km
500 à 1000 ft
800 à 1500m
200 à 500 ft
< 800m
< 200 ft
Symboles :   Orages  Brouillard  Fortes neiges  Fortes précipitations  Vent > 20 kt
SIGMETs :   Divers  Orages  Givrage  Turbulence  Onde Orograph.  Cendres Volcan.






- Altitude de l'aérodrome : 140 ft


ESTL - Ljungbyhed

DERNIER METAR :
  • 200120Z AUTO 20008KT 9999 OVC010/// 07/06 Q1019

METARs EXPIRÉS :
  • 200050Z AUTO 20009KT 160V240 9999 OVC011/// 07/06 Q1018
  • 200020Z AUTO 20010KT 9999 OVC012/// 08/06 Q1018
  • 192350Z AUTO 20010KT 9999 OVC013/// 08/06 Q1018
  • 192320Z AUTO 20009KT 170V230 9999 FEW015/// BKN018/// OVC021/// 08/06 Q1018
  • 192250Z AUTO 18010KT 9999 FEW015/// OVC018/// 08/07 Q1017
  • 192220Z AUTO 19009KT 9999 OVC017/// 08/07 Q1017

Prévision TAF périmée.



MET'MAP, la Météo Aéronautique d'un coup d'oeil ! - Copyright ORBIFLY Décembre 2007 - Disclaimer

ORBIFLY MET'MAP TEAM :

Programmation & Développement : Alexandra Zaïnal
Conception & Développement : Baudouin d'Aumeries
Co-Programmation & Développement : Marc-Olivier Méhu
Soutien technique & logistique : Manuel Goepfert

Contact : metmap@orbifly.com




SOURCES & CREDITS :

   NOAA